Atwater, IL

3:57 AM CDT on April 21, 2015 (GMT -0500)
Saint Louis Regional | | Change Station
CLOSE
Current Station
Airport
Location: Alton,
Elevation: 545 ft
Nearby Weather Stations

Elev 545 ft 38.89 °N, 90.03 °W | Updated 22 minutes ago

Clear
Clear
44 °F
Feels Like 39 °F
N
8
Wind Variable Wind from SW

Today
High -- | Low -- °F
--% Chance of Precip.
Yesterday
High -- | Low -- °F
Precip. -- in
6:13 AM 7:42 PM
Waxing Crescent, 9% visible
Pressure 29.82 in
Visibility 10.0 miles
Clouds Clear
Windchill 39 °F
Dew Point 28 °F
Humidity 53%
Rainfall 0.00 in
Snow Depth Not available.
UV 0 out of 12
Pollen 7.10 out of 12
Air Quality Not available.
Flu Activity Regional
METAR KALN 210835Z AUTO 22007KT 10SM CLR 06/M02 A2982 RMK AO2 T00641025

More Conditions Fewer Conditions

Pressure 29.82 in
Visibility 10.0 miles
Clouds Clear
Windchill 39 °F
Dew Point 28 °F
Humidity 53%
Rainfall 0.00 in
Snow Depth Not available.
UV 0 out of 12
Pollen 7.10 out of 12
Air Quality Not available.
Flu Activity Regional
METAR KALN 210835Z AUTO 22007KT 10SM CLR 06/M02 A2982 RMK AO2 T00641025

More Conditions Fewer Conditions

10-Day Weather Forecast

Almanac

Astronomy

Apr. 21, 2015 Rise Set
Actual Time
Civil Twilight
Nautical Twilight
Astronomical Twilight
Moon
Length of Visible Light
Length of Day
Tomorrow will be .
, % of the Moon is Illuminated

Today's Extremes

State Highs State Lows

Community

WunderPhotos

Upload Photos

1,815,329 photos uploaded!

WunderBlogs® & News

Nearby

Air Quality

  Air Quality AQ Index Pollutant
Not available.

Snow Depth

Station Depth Elevation

Earthquake Activity

City Distance Mag. Time & Date
Minimum magnitude displayed is 2.5.

Coastal Water Temperatures

Place Temperature

Stations

Nearby Weather Stations

Station Location Temp. Windchill Dew Point Humidity Wind Precip. Elev Updated Type